createdAt,value
2023-03-05T00:00:57.505Z,13.30
2023-03-05T00:01:57.494Z,17.00
2023-03-05T00:02:57.469Z,20.80
2023-03-05T00:03:57.550Z,18.50
2023-03-05T00:04:57.420Z,17.40
2023-03-05T00:05:57.421Z,20.60
2023-03-05T00:06:57.456Z,18.70
2023-03-05T00:07:57.403Z,17.70
2023-03-05T00:08:57.393Z,16.60
2023-03-05T00:09:57.369Z,18.30
2023-03-05T00:10:57.386Z,19.50
2023-03-05T00:11:57.348Z,25.40
2023-03-05T00:12:57.372Z,21.10
2023-03-05T00:13:57.319Z,16.00
2023-03-05T00:14:57.331Z,20.80
2023-03-05T00:15:57.357Z,18.90
2023-03-05T00:16:57.318Z,18.10
2023-03-05T00:17:57.300Z,19.50
2023-03-05T00:18:57.292Z,16.40
2023-03-05T00:19:57.260Z,17.90
2023-03-05T00:20:57.281Z,18.40
2023-03-05T00:21:57.239Z,19.80
2023-03-05T00:22:57.297Z,20.00
2023-03-05T00:23:57.242Z,14.80
2023-03-05T00:24:57.241Z,17.00
2023-03-05T00:25:57.202Z,19.20
2023-03-05T00:26:57.215Z,19.10
2023-03-05T00:27:57.174Z,18.90
2023-03-05T00:28:57.226Z,18.60
2023-03-05T00:29:57.176Z,15.80
2023-03-05T00:30:57.207Z,20.80
2023-03-05T00:31:57.158Z,23.90
2023-03-05T00:32:57.154Z,20.40
2023-03-05T00:33:57.137Z,16.70
2023-03-05T00:34:57.131Z,17.90
2023-03-05T00:35:57.177Z,18.80
2023-03-05T00:36:57.102Z,20.10
2023-03-05T00:37:57.087Z,19.80
2023-03-05T00:38:57.081Z,17.80
2023-03-05T00:39:57.065Z,29.10
2023-03-05T00:40:57.068Z,24.60
2023-03-05T00:41:57.036Z,20.40
2023-03-05T00:42:57.051Z,18.20
2023-03-05T00:43:57.029Z,19.80
2023-03-05T00:44:57.037Z,17.80
2023-03-05T00:45:56.994Z,18.10
2023-03-05T00:46:57.015Z,17.60
2023-03-05T00:47:56.976Z,22.50
2023-03-05T00:48:57.004Z,18.90
2023-03-05T00:49:56.962Z,21.80
2023-03-05T00:50:56.973Z,18.00
2023-03-05T00:51:56.939Z,22.70
2023-03-05T00:52:56.938Z,22.80
2023-03-05T00:53:56.918Z,20.10
2023-03-05T00:54:56.957Z,21.70
2023-03-05T00:55:55.902Z,22.90
2023-03-05T00:56:56.909Z,23.10
2023-03-05T00:57:56.867Z,20.10
2023-03-05T00:58:56.897Z,23.20
2023-03-05T00:59:56.855Z,22.70
2023-03-05T01:00:56.896Z,19.70
2023-03-05T01:01:56.875Z,20.80
2023-03-05T01:02:56.848Z,19.20
2023-03-05T01:03:56.804Z,23.70
2023-03-05T01:04:56.859Z,24.80
2023-03-05T01:05:56.785Z,16.40
2023-03-05T01:06:56.793Z,18.00
2023-03-05T01:07:56.760Z,21.90
2023-03-05T01:08:56.759Z,17.50
2023-03-05T01:09:56.730Z,20.30
2023-03-05T01:10:56.755Z,19.70
2023-03-05T01:11:56.710Z,22.80
2023-03-05T01:12:56.710Z,16.10
2023-03-05T01:13:56.686Z,21.30
2023-03-05T01:14:56.728Z,24.70
2023-03-05T01:15:56.734Z,19.80
2023-03-05T01:16:56.673Z,21.70
2023-03-05T01:17:56.681Z,26.70
2023-03-05T01:18:56.667Z,18.80
2023-03-05T01:19:56.623Z,20.10
2023-03-05T01:20:56.624Z,24.00
2023-03-05T01:21:56.597Z,18.90
2023-03-05T01:22:56.615Z,21.50
2023-03-05T01:23:56.580Z,24.00
2023-03-05T01:24:56.583Z,20.90
2023-03-05T01:25:56.554Z,21.20
2023-03-05T01:26:56.561Z,20.10
2023-03-05T01:27:56.545Z,18.90
2023-03-05T01:28:56.557Z,22.10
2023-03-05T01:29:56.520Z,20.90
2023-03-05T01:30:56.518Z,19.30
2023-03-05T01:31:56.498Z,21.80
2023-03-05T01:32:56.520Z,19.00
2023-03-05T01:33:56.501Z,23.70
2023-03-05T01:34:56.474Z,18.70
2023-03-05T01:35:56.491Z,23.70
2023-03-05T01:36:56.473Z,18.50
2023-03-05T01:37:56.431Z,20.70
2023-03-05T01:38:56.470Z,19.40
2023-03-05T01:39:56.417Z,24.60
2023-03-05T01:40:56.425Z,23.20
2023-03-05T01:41:56.397Z,21.90
2023-03-05T01:42:56.413Z,21.70
2023-03-05T01:43:56.394Z,18.90
2023-03-05T01:44:56.405Z,22.70
2023-03-05T01:45:56.451Z,23.40
2023-03-05T01:46:56.377Z,24.90
2023-03-05T01:47:56.361Z,25.20
2023-03-05T01:48:56.339Z,19.90
2023-03-05T01:49:56.317Z,20.90
2023-03-05T01:50:56.340Z,20.40
2023-03-05T01:51:56.291Z,20.80
2023-03-05T01:52:56.295Z,19.30
2023-03-05T01:53:56.272Z,22.20
2023-03-05T01:54:56.318Z,20.10
2023-03-05T01:55:56.375Z,19.20
2023-03-05T01:56:56.264Z,21.60
2023-03-05T01:57:56.230Z,25.10
2023-03-05T01:58:56.253Z,21.60
2023-03-05T01:59:56.219Z,20.50
2023-03-05T02:00:56.252Z,19.10
2023-03-05T02:01:56.193Z,22.30
2023-03-05T02:02:56.212Z,23.50
2023-03-05T02:03:56.213Z,20.40
2023-03-05T02:04:56.197Z,21.40
2023-03-05T02:05:56.156Z,20.80
2023-03-05T02:06:56.166Z,20.10
2023-03-05T02:07:56.129Z,21.40
2023-03-05T02:08:56.145Z,22.70
2023-03-05T02:09:56.102Z,22.30
2023-03-05T02:10:56.122Z,21.30
2023-03-05T02:11:56.087Z,19.60
2023-03-05T02:12:56.121Z,22.00
2023-03-05T02:13:56.083Z,19.30
2023-03-05T02:14:56.084Z,18.50
2023-03-05T02:15:56.055Z,19.90
2023-03-05T02:16:56.120Z,19.20
2023-03-05T02:17:56.037Z,24.80
2023-03-05T02:18:56.043Z,18.90
2023-03-05T02:19:56.004Z,21.80
2023-03-05T02:20:56.030Z,20.30
2023-03-05T02:21:55.984Z,19.90
2023-03-05T02:22:56.016Z,20.20
2023-03-05T02:23:55.963Z,18.10
2023-03-05T02:24:55.990Z,21.40
2023-03-05T02:25:55.949Z,28.90
2023-03-05T02:26:55.982Z,20.20
2023-03-05T02:27:55.941Z,24.20
2023-03-05T02:28:55.949Z,19.40
2023-03-05T02:29:55.912Z,20.10
2023-03-05T02:30:55.917Z,17.60
2023-03-05T02:31:55.946Z,17.40
2023-03-05T02:32:55.902Z,24.40
2023-03-05T02:33:55.875Z,18.00
2023-03-05T02:34:55.882Z,19.40
2023-03-05T02:35:55.858Z,19.40
2023-03-05T02:36:55.863Z,20.70
2023-03-05T02:37:55.819Z,23.90
2023-03-05T02:38:55.844Z,19.50
2023-03-05T02:39:55.799Z,19.50
2023-03-05T02:40:55.818Z,18.90
2023-03-05T02:41:55.778Z,18.80
2023-03-05T02:42:55.824Z,18.10
2023-03-05T02:43:55.774Z,19.70
2023-03-05T02:44:55.790Z,21.00
2023-03-05T02:45:55.751Z,19.80
2023-03-05T02:46:55.755Z,21.20
2023-03-05T02:47:55.739Z,18.70
2023-03-05T02:48:55.722Z,17.50
2023-03-05T02:49:55.702Z,18.10
2023-03-05T02:50:55.714Z,20.10
2023-03-05T02:51:55.688Z,19.80
2023-03-05T02:52:55.690Z,22.00
2023-03-05T02:53:55.662Z,24.60
2023-03-05T02:54:55.676Z,19.90
2023-03-05T02:55:55.648Z,18.70
2023-03-05T02:56:55.638Z,19.40
2023-03-05T02:57:55.616Z,17.20
2023-03-05T02:58:55.653Z,18.60
2023-03-05T02:59:55.644Z,21.90
2023-03-05T03:00:55.622Z,18.80
2023-03-05T03:01:55.573Z,19.70
2023-03-05T03:02:55.630Z,18.80
2023-03-05T03:03:55.585Z,24.20
2023-03-05T03:04:55.579Z,18.50
2023-03-05T03:05:55.530Z,23.20
2023-03-05T03:06:55.560Z,21.20
2023-03-05T03:07:55.513Z,16.90
2023-03-05T03:08:55.537Z,19.20
2023-03-05T03:09:55.505Z,19.30
2023-03-05T03:10:55.494Z,19.70
2023-03-05T03:11:55.484Z,16.70
2023-03-05T03:12:55.475Z,18.90
2023-03-05T03:13:55.453Z,19.50
2023-03-05T03:14:55.452Z,17.90
2023-03-05T03:15:55.451Z,19.30
2023-03-05T03:16:55.536Z,18.20
2023-03-05T03:17:55.422Z,18.70
2023-03-05T03:18:55.423Z,18.30
2023-03-05T03:19:55.395Z,17.80
2023-03-05T03:20:55.397Z,14.30
2023-03-05T03:21:55.407Z,17.10
2023-03-05T03:22:55.382Z,18.60
2023-03-05T03:23:55.353Z,17.20
2023-03-05T03:24:55.371Z,18.20
2023-03-05T03:25:55.345Z,19.00
2023-03-05T03:26:55.347Z,18.10
2023-03-05T03:27:55.324Z,16.10
2023-03-05T03:28:55.343Z,18.30
2023-03-05T03:29:55.293Z,16.10
2023-03-05T03:30:55.411Z,14.00
2023-03-05T03:31:55.270Z,16.90
2023-03-05T03:32:55.298Z,20.60
2023-03-05T03:33:55.254Z,15.00
2023-03-05T03:34:55.263Z,16.60
2023-03-05T03:35:55.278Z,14.80
2023-03-05T03:36:55.235Z,16.60
2023-03-05T03:37:55.210Z,18.00
2023-03-05T03:38:55.262Z,16.70
2023-03-05T03:39:55.208Z,19.90
2023-03-05T03:40:55.216Z,18.10
2023-03-05T03:41:55.177Z,16.10
2023-03-05T03:42:55.177Z,17.50
2023-03-05T03:43:55.150Z,17.80
2023-03-05T03:44:55.176Z,15.10
2023-03-05T03:45:55.237Z,13.80
2023-03-05T03:46:55.156Z,15.80
2023-03-05T03:47:55.106Z,14.60
2023-03-05T03:48:55.131Z,15.30
2023-03-05T03:49:55.106Z,18.00
2023-03-05T03:50:55.097Z,15.80
2023-03-05T03:51:55.064Z,16.20
2023-03-05T03:52:55.089Z,17.70
2023-03-05T03:53:55.063Z,14.10
2023-03-05T03:54:55.065Z,15.80
2023-03-05T03:55:55.030Z,16.70
2023-03-05T03:56:55.047Z,14.00
2023-03-05T03:57:55.008Z,15.10
2023-03-05T03:58:55.013Z,15.60
2023-03-05T03:59:55.020Z,16.50
2023-03-05T04:00:54.992Z,16.00
2023-03-05T04:01:54.966Z,15.90
2023-03-05T04:02:55.057Z,16.70
2023-03-05T04:03:54.978Z,17.60
2023-03-05T04:04:54.958Z,15.20
2023-03-05T04:05:54.959Z,17.30
2023-03-05T04:06:54.962Z,16.90
2023-03-05T04:07:54.937Z,17.50
2023-03-05T04:08:54.923Z,14.80
2023-03-05T04:09:54.882Z,16.50
2023-03-05T04:10:54.902Z,13.40
2023-03-05T04:11:54.872Z,15.20
2023-03-05T04:12:54.868Z,13.70
2023-03-05T04:13:54.841Z,14.60
2023-03-05T04:14:54.864Z,14.70
2023-03-05T04:15:54.865Z,13.60
2023-03-05T04:16:54.876Z,14.90
2023-03-05T04:17:54.812Z,15.40
2023-03-05T04:18:54.825Z,18.20
2023-03-05T04:19:54.781Z,14.40
2023-03-05T04:20:54.813Z,17.30
2023-03-05T04:21:54.795Z,13.40
2023-03-05T04:22:54.765Z,14.70
2023-03-05T04:23:54.777Z,11.70
2023-03-05T04:24:54.736Z,15.50
2023-03-05T04:25:54.758Z,14.50
2023-03-05T04:26:54.717Z,14.80
2023-03-05T04:27:54.751Z,15.10
2023-03-05T04:28:54.698Z,17.10
2023-03-05T04:29:54.722Z,15.40
2023-03-05T04:30:54.677Z,24.30
2023-03-05T04:31:54.706Z,19.10
2023-03-05T04:32:54.644Z,13.70
2023-03-05T04:33:54.670Z,15.20
2023-03-05T04:34:54.625Z,18.90
2023-03-05T04:35:54.719Z,21.90
2023-03-05T04:36:54.599Z,19.30
2023-03-05T04:37:54.640Z,15.60
2023-03-05T04:38:54.602Z,13.50
2023-03-05T04:39:54.605Z,15.90
2023-03-05T04:40:54.558Z,14.70
2023-03-05T04:41:54.578Z,15.90
2023-03-05T04:42:54.550Z,23.00
2023-03-05T04:43:54.584Z,17.70
2023-03-05T04:44:54.528Z,17.50
2023-03-05T04:45:54.536Z,21.50
2023-03-05T04:46:54.496Z,14.70
2023-03-05T04:47:54.498Z,17.00
2023-03-05T04:48:54.484Z,18.60
2023-03-05T04:49:54.515Z,17.40
2023-03-05T04:50:54.462Z,17.00
2023-03-05T04:51:54.469Z,18.00
2023-03-05T04:52:54.442Z,18.00
2023-03-05T04:53:54.470Z,19.10
2023-03-05T04:54:54.428Z,16.50
2023-03-05T04:55:54.424Z,19.60
2023-03-05T04:56:54.396Z,16.60
2023-03-05T04:57:54.417Z,16.40
2023-03-05T04:58:54.392Z,16.40
2023-03-05T04:59:54.392Z,15.40
2023-03-05T05:00:54.360Z,19.00
2023-03-05T05:01:54.426Z,17.10
2023-03-05T05:02:54.380Z,14.30
2023-03-05T05:03:54.354Z,18.80
2023-03-05T05:04:54.331Z,18.50
2023-03-05T05:05:54.340Z,20.30
2023-03-05T05:06:54.294Z,18.70
2023-03-05T05:07:54.299Z,16.00
2023-03-05T05:08:54.269Z,17.90
2023-03-05T05:09:54.277Z,18.50
2023-03-05T05:10:54.261Z,15.40
2023-03-05T05:11:54.272Z,16.80
2023-03-05T05:12:54.266Z,18.60
2023-03-05T05:13:54.254Z,18.90
2023-03-05T05:14:54.213Z,19.70
2023-03-05T05:15:54.270Z,18.40
2023-03-05T05:16:54.190Z,19.60
2023-03-05T05:17:54.221Z,20.90
2023-03-05T05:18:54.166Z,18.20
2023-03-05T05:19:54.185Z,18.60
2023-03-05T05:20:54.167Z,18.60
2023-03-05T05:21:54.170Z,21.50
2023-03-05T05:22:54.154Z,19.90
2023-03-05T05:23:54.156Z,21.40
2023-03-05T05:24:54.109Z,21.40
2023-03-05T05:25:54.140Z,17.10
2023-03-05T05:26:54.096Z,25.40
2023-03-05T05:27:54.111Z,19.20
2023-03-05T05:28:54.083Z,21.10
2023-03-05T05:29:54.032Z,17.70
2023-03-05T05:30:54.048Z,23.90
2023-03-05T05:31:54.138Z,22.20
2023-03-05T05:32:53.976Z,19.40
2023-03-05T05:33:54.057Z,20.90
2023-03-05T05:34:54.003Z,23.80
2023-03-05T05:35:54.065Z,19.90
2023-03-05T05:36:53.950Z,25.60
2023-03-05T05:37:54.019Z,19.30
2023-03-05T05:38:53.935Z,19.50
2023-03-05T05:39:53.951Z,18.10
2023-03-05T05:40:53.898Z,21.60
2023-03-05T05:41:53.938Z,19.60
2023-03-05T05:42:53.879Z,21.40
2023-03-05T05:43:53.914Z,23.60
2023-03-05T05:44:53.863Z,17.60
2023-03-05T05:45:54.084Z,21.80
2023-03-05T05:46:53.849Z,20.10
2023-03-05T05:47:53.864Z,19.80
2023-03-05T05:48:53.824Z,21.20
2023-03-05T05:49:53.837Z,20.50
2023-03-05T05:50:53.821Z,17.50
2023-03-05T05:51:53.828Z,18.70
2023-03-05T05:52:53.785Z,21.80
2023-03-05T05:53:53.799Z,19.80
2023-03-05T05:54:53.772Z,19.10
2023-03-05T05:55:53.796Z,21.50
2023-03-05T05:56:53.735Z,21.80
2023-03-05T05:57:53.762Z,21.40
2023-03-05T05:58:53.712Z,18.80
2023-03-05T05:59:53.771Z,20.10
2023-03-05T06:00:53.691Z,19.50
2023-03-05T06:01:53.755Z,20.10
2023-03-05T06:02:53.748Z,22.50
2023-03-05T06:03:53.708Z,23.50
2023-03-05T06:04:53.648Z,18.40
2023-03-05T06:05:53.688Z,22.30
2023-03-05T06:06:53.638Z,16.00
2023-03-05T06:07:53.711Z,18.20
2023-03-05T06:08:53.620Z,19.70
2023-03-05T06:09:53.682Z,19.50
2023-03-05T06:10:53.627Z,23.30
2023-03-05T06:11:53.615Z,19.40
2023-03-05T06:12:53.604Z,13.20
2023-03-05T06:13:53.585Z,21.10
2023-03-05T06:14:53.564Z,22.90
2023-03-05T06:15:53.566Z,20.80
2023-03-05T06:16:53.605Z,20.80
2023-03-05T06:17:53.569Z,22.80
2023-03-05T06:18:53.569Z,19.90
2023-03-05T06:19:53.539Z,17.20
2023-03-05T06:20:53.488Z,17.20
2023-03-05T06:21:53.524Z,17.40
2023-03-05T06:22:53.476Z,22.70
2023-03-05T06:23:53.492Z,20.60
2023-03-05T06:24:53.477Z,23.50
2023-03-05T06:25:53.446Z,23.90
2023-03-05T06:26:53.423Z,21.20
2023-03-05T06:27:53.433Z,15.30
2023-03-05T06:28:53.428Z,19.10
2023-03-05T06:29:53.423Z,21.30
2023-03-05T06:30:53.440Z,21.60
2023-03-05T06:31:53.393Z,18.40
2023-03-05T06:32:53.363Z,21.60
2023-03-05T06:33:53.376Z,23.90
2023-03-05T06:34:53.384Z,18.20
2023-03-05T06:35:53.405Z,24.20
2023-03-05T06:36:53.335Z,19.70
2023-03-05T06:37:53.344Z,19.40
2023-03-05T06:38:53.568Z,21.10
2023-03-05T06:39:53.391Z,24.00
2023-03-05T06:40:53.281Z,24.00
2023-03-05T06:41:53.287Z,23.20
2023-03-05T06:42:53.276Z,25.40
2023-03-05T06:43:53.279Z,20.80
2023-03-05T06:44:53.238Z,23.40
2023-03-05T06:45:53.289Z,19.10
2023-03-05T06:46:53.234Z,21.90
2023-03-05T06:47:53.257Z,19.60
2023-03-05T06:48:53.210Z,19.40
2023-03-05T06:49:53.240Z,19.40
2023-03-05T06:50:53.180Z,23.10
2023-03-05T06:51:53.201Z,16.00
2023-03-05T06:52:53.162Z,24.40
2023-03-05T06:53:53.192Z,19.80
2023-03-05T06:54:53.160Z,20.40
2023-03-05T06:55:53.157Z,24.20
2023-03-05T06:56:53.129Z,25.00
2023-03-05T06:57:53.134Z,22.10
2023-03-05T06:58:53.153Z,24.60
2023-03-05T06:59:53.106Z,25.20
2023-03-05T07:00:53.129Z,26.80
2023-03-05T07:01:53.091Z,23.90
2023-03-05T07:02:53.059Z,22.30
2023-03-05T07:03:53.136Z,19.90
2023-03-05T07:04:53.051Z,21.30
2023-03-05T07:05:53.053Z,20.10
2023-03-05T07:06:53.020Z,18.30
2023-03-05T07:07:53.023Z,21.10
2023-03-05T07:08:53.005Z,18.50
2023-03-05T07:09:53.007Z,21.00
2023-03-05T07:10:53.057Z,24.50
2023-03-05T07:11:52.990Z,21.10
2023-03-05T07:12:52.974Z,21.80
2023-03-05T07:13:53.002Z,23.90
2023-03-05T07:14:52.939Z,23.70
2023-03-05T07:15:53.082Z,17.20
2023-03-05T07:16:52.922Z,21.50
2023-03-05T07:17:52.934Z,29.30
2023-03-05T07:18:52.895Z,22.40
2023-03-05T07:19:52.929Z,22.50
2023-03-05T07:20:52.875Z,20.80
2023-03-05T07:21:52.887Z,23.70
2023-03-05T07:22:52.860Z,19.70
2023-03-05T07:23:52.887Z,24.30
2023-03-05T07:24:52.878Z,23.00
2023-03-05T07:25:52.853Z,20.20
2023-03-05T07:26:52.812Z,29.00
2023-03-05T07:27:52.836Z,20.40
2023-03-05T07:28:52.793Z,23.60
2023-03-05T07:29:52.804Z,22.90
2023-03-05T07:30:52.796Z,24.60
2023-03-05T07:31:52.790Z,32.40
2023-03-05T07:32:52.760Z,22.00
2023-03-05T07:33:52.751Z,22.60
2023-03-05T07:34:52.735Z,24.70
2023-03-05T07:35:52.776Z,20.90
2023-03-05T07:36:52.738Z,22.30
2023-03-05T07:37:52.733Z,21.90
2023-03-05T07:38:52.687Z,22.90
2023-03-05T07:39:52.703Z,21.70
2023-03-05T07:40:52.675Z,24.00
2023-03-05T07:41:52.686Z,22.20
2023-03-05T07:42:52.648Z,21.50
2023-03-05T07:43:52.681Z,21.80
2023-03-05T07:44:52.857Z,25.00
2023-03-05T07:45:52.722Z,19.70
2023-03-05T07:46:52.659Z,22.30
2023-03-05T07:47:52.742Z,23.10
2023-03-05T07:48:52.591Z,21.00
2023-03-05T07:49:52.597Z,25.80
2023-03-05T07:50:52.562Z,18.40
2023-03-05T07:51:52.603Z,19.90
2023-03-05T07:52:52.567Z,22.00
2023-03-05T07:53:52.573Z,16.20
2023-03-05T07:54:52.528Z,20.00
2023-03-05T07:55:52.560Z,16.70
2023-03-05T07:56:52.504Z,17.20
2023-03-05T07:57:52.520Z,14.70
2023-03-05T07:58:52.499Z,18.70
2023-03-05T07:59:52.503Z,17.00
2023-03-05T08:00:52.490Z,20.90
2023-03-05T08:01:52.505Z,16.40
2023-03-05T08:02:52.548Z,13.90
2023-03-05T08:03:52.489Z,16.40
2023-03-05T08:04:52.425Z,21.80
2023-03-05T08:05:52.438Z,23.70
2023-03-05T08:06:52.403Z,15.80
2023-03-05T08:07:52.417Z,16.30
2023-03-05T08:08:52.395Z,14.90
2023-03-05T08:09:52.395Z,13.70
2023-03-05T08:10:52.366Z,19.10
2023-03-05T08:11:52.392Z,15.40
2023-03-05T08:12:52.346Z,17.70
2023-03-05T08:13:52.343Z,20.40
2023-03-05T08:14:52.315Z,15.00
2023-03-05T08:15:52.392Z,16.10
2023-03-05T08:16:52.353Z,17.20
2023-03-05T08:17:52.297Z,16.20
2023-03-05T08:18:52.293Z,15.70
2023-03-05T08:19:52.296Z,15.70
2023-03-05T08:20:52.248Z,20.50
2023-03-05T08:21:52.260Z,18.40
2023-03-05T08:22:52.232Z,13.70
2023-03-05T08:23:52.243Z,14.60
2023-03-05T08:24:52.231Z,17.60
2023-03-05T08:25:52.234Z,15.30
2023-03-05T08:26:52.200Z,14.20
2023-03-05T08:27:52.204Z,14.30
2023-03-05T08:28:52.169Z,14.40
2023-03-05T08:29:52.171Z,14.50
2023-03-05T08:30:52.218Z,17.50
2023-03-05T08:31:52.183Z,12.70
2023-03-05T08:32:52.125Z,16.00
2023-03-05T08:33:52.168Z,16.40
2023-03-05T08:34:52.128Z,15.10
2023-03-05T08:35:52.152Z,15.50
2023-03-05T08:36:52.102Z,15.30
2023-03-05T08:37:52.078Z,14.60
2023-03-05T08:38:52.106Z,15.00
2023-03-05T08:39:52.050Z,15.50
2023-03-05T08:40:52.072Z,15.40
2023-03-05T08:41:52.043Z,13.50
2023-03-05T08:42:52.052Z,14.20
2023-03-05T08:43:52.036Z,13.40
2023-03-05T08:44:52.052Z,14.40
2023-03-05T08:45:51.990Z,11.00
2023-03-05T08:46:52.135Z,10.10
2023-03-05T08:47:52.043Z,10.70
2023-03-05T08:48:51.990Z,8.20
2023-03-05T08:49:51.978Z,9.90
2023-03-05T08:50:51.970Z,9.50
2023-03-05T08:51:51.937Z,11.90
2023-03-05T08:52:51.954Z,7.70
2023-03-05T08:53:51.928Z,7.90
2023-03-05T08:54:51.936Z,16.90
2023-03-05T08:55:51.888Z,11.10
2023-03-05T08:56:51.905Z,8.50
2023-03-05T08:57:51.870Z,9.40
2023-03-05T08:58:51.931Z,9.30
2023-03-05T08:59:51.937Z,9.00
2023-03-05T09:00:51.878Z,11.70
2023-03-05T09:01:51.888Z,13.10
2023-03-05T09:02:51.869Z,9.40
2023-03-05T09:03:51.805Z,7.70
2023-03-05T09:04:51.852Z,9.80
2023-03-05T09:05:51.786Z,9.50
2023-03-05T09:06:51.834Z,9.60
2023-03-05T09:07:51.780Z,10.80
2023-03-05T09:08:51.793Z,9.70
2023-03-05T09:09:51.771Z,8.70
2023-03-05T09:10:51.763Z,9.30
2023-03-05T09:11:51.722Z,10.10
2023-03-05T09:12:51.754Z,10.40
2023-03-05T09:13:51.706Z,9.50
2023-03-05T09:14:51.740Z,8.30
2023-03-05T09:15:51.820Z,7.50
2023-03-05T09:16:51.700Z,9.50
2023-03-05T09:17:51.666Z,6.40
2023-03-05T09:18:51.684Z,7.70
2023-03-05T09:19:51.640Z,6.80
2023-03-05T09:20:51.683Z,7.40
2023-03-05T09:21:51.637Z,8.40
2023-03-05T09:22:51.628Z,10.90
2023-03-05T09:23:51.602Z,9.30
2023-03-05T09:24:51.635Z,7.40
2023-03-05T09:25:51.597Z,7.60
2023-03-05T09:26:51.620Z,11.20
2023-03-05T09:27:51.554Z,9.70
2023-03-05T09:28:51.600Z,9.40
2023-03-05T09:29:51.542Z,7.40
2023-03-05T09:30:51.554Z,8.20
2023-03-05T09:31:51.633Z,9.80
2023-03-05T09:32:51.521Z,8.70
2023-03-05T09:33:51.539Z,8.00
2023-03-05T09:34:51.498Z,10.10
2023-03-05T09:35:51.504Z,8.30
2023-03-05T09:36:51.517Z,12.10
2023-03-05T09:37:51.460Z,8.60
2023-03-05T09:38:51.509Z,6.90
2023-03-05T09:39:51.431Z,8.80
2023-03-05T09:40:51.436Z,8.40
2023-03-05T09:41:51.431Z,7.90
2023-03-05T09:42:51.430Z,8.00
2023-03-05T09:43:51.399Z,7.20
2023-03-05T09:44:51.405Z,7.00
2023-03-05T09:45:51.613Z,6.20
2023-03-05T09:46:51.397Z,9.90
2023-03-05T09:47:51.363Z,6.90
2023-03-05T09:48:51.361Z,7.40
2023-03-05T09:49:51.339Z,4.40
2023-03-05T09:50:51.360Z,4.80
2023-03-05T09:51:51.360Z,6.20
2023-03-05T09:52:51.323Z,5.40
2023-03-05T09:53:51.302Z,7.90
2023-03-05T09:54:51.305Z,9.00
2023-03-05T09:55:51.292Z,4.50
2023-03-05T09:56:51.272Z,7.40
2023-03-05T09:57:51.327Z,7.10
2023-03-05T09:58:51.272Z,4.40
2023-03-05T09:59:51.267Z,4.00
2023-03-05T10:00:51.246Z,6.20
2023-03-05T10:01:51.208Z,4.10
2023-03-05T10:02:51.266Z,5.10
2023-03-05T10:03:51.288Z,5.40
2023-03-05T10:04:51.206Z,4.00
2023-03-05T10:05:51.176Z,5.50
2023-03-05T10:06:51.209Z,4.30
2023-03-05T10:07:51.141Z,5.40
2023-03-05T10:08:51.212Z,5.50
2023-03-05T10:09:51.137Z,6.20
2023-03-05T10:10:51.149Z,3.80
2023-03-05T10:11:51.125Z,6.00
2023-03-05T10:12:51.143Z,5.70
2023-03-05T10:13:51.115Z,4.20
2023-03-05T10:14:51.086Z,5.80
2023-03-05T10:15:51.116Z,3.70
2023-03-05T10:16:51.124Z,4.40
2023-03-05T10:17:51.041Z,4.20
2023-03-05T10:18:51.059Z,5.40
2023-03-05T10:19:51.026Z,6.80
2023-03-05T10:20:51.051Z,5.60
2023-03-05T10:21:51.086Z,3.80
2023-03-05T10:22:51.023Z,5.10
2023-03-05T10:23:50.979Z,6.40
2023-03-05T10:24:50.996Z,5.00
2023-03-05T10:25:51.006Z,5.10
2023-03-05T10:26:51.009Z,4.60
2023-03-05T10:27:53.723Z,5.30
2023-03-05T10:28:50.994Z,7.20
2023-03-05T10:29:50.912Z,4.50
2023-03-05T10:30:50.930Z,3.60
2023-03-05T10:31:50.931Z,9.00
2023-03-05T10:32:50.985Z,4.80
2023-03-05T10:33:50.937Z,9.20
2023-03-05T10:34:50.897Z,7.20
2023-03-05T10:35:50.937Z,5.60
2023-03-05T10:36:50.864Z,4.90
2023-03-05T10:37:50.831Z,5.20
2023-03-05T10:38:50.885Z,5.00
2023-03-05T10:39:50.831Z,7.00
2023-03-05T10:40:50.828Z,6.30
2023-03-05T10:41:50.809Z,6.80
2023-03-05T10:42:50.832Z,5.30
2023-03-05T10:43:50.770Z,7.10
2023-03-05T10:44:50.778Z,6.70
2023-03-05T10:45:50.824Z,8.50
2023-03-05T10:46:50.763Z,7.90
2023-03-05T10:47:50.731Z,5.70
2023-03-05T10:48:50.751Z,6.30
2023-03-05T10:49:50.707Z,5.50
2023-03-05T10:50:50.735Z,7.00
2023-03-05T10:51:50.742Z,4.90
2023-03-05T10:52:50.713Z,3.90
2023-03-05T10:53:50.681Z,5.50
2023-03-05T10:54:50.707Z,4.90
2023-03-05T10:55:50.649Z,4.60
2023-03-05T10:56:50.650Z,6.30
2023-03-05T10:57:50.641Z,4.90
2023-03-05T10:58:50.629Z,2.90
2023-03-05T10:59:50.623Z,4.40
2023-03-05T11:00:50.613Z,11.00
2023-03-05T11:01:50.591Z,7.70
2023-03-05T11:02:50.700Z,4.70
2023-03-05T11:03:50.567Z,5.50
2023-03-05T11:04:50.577Z,5.70
2023-03-05T11:05:50.536Z,3.30
2023-03-05T11:06:50.562Z,3.80
2023-03-05T11:07:50.533Z,3.60
2023-03-05T11:08:50.539Z,4.10
2023-03-05T11:09:50.500Z,3.20
2023-03-05T11:10:50.512Z,4.70
2023-03-05T11:11:50.475Z,5.30
2023-03-05T11:12:50.493Z,5.60
2023-03-05T11:13:50.470Z,5.20
2023-03-05T11:14:50.463Z,4.80
2023-03-05T11:15:50.463Z,4.90
2023-03-05T11:16:50.448Z,5.90
2023-03-05T11:17:50.407Z,5.60
2023-03-05T11:18:50.477Z,12.10
2023-03-05T11:19:50.390Z,10.00
2023-03-05T11:20:50.394Z,5.10
2023-03-05T11:21:50.393Z,4.50
2023-03-05T11:22:50.389Z,4.20
2023-03-05T11:23:50.392Z,4.40
2023-03-05T11:24:50.353Z,3.10
2023-03-05T11:25:50.338Z,4.90
2023-03-05T11:26:50.350Z,6.50
2023-03-05T11:27:52.013Z,4.70
2023-03-05T11:28:50.320Z,4.20
2023-03-05T11:29:50.286Z,6.90
2023-03-05T11:30:50.302Z,3.30
2023-03-05T11:31:50.268Z,2.50
2023-03-05T11:32:50.272Z,4.80
2023-03-05T11:33:50.258Z,2.70
2023-03-05T11:34:50.256Z,5.70
2023-03-05T11:35:50.268Z,5.40
2023-03-05T11:36:50.237Z,3.10
2023-03-05T11:37:50.204Z,6.20
2023-03-05T11:38:50.206Z,4.50
2023-03-05T11:39:50.178Z,4.30
2023-03-05T11:40:50.207Z,2.40
2023-03-05T11:41:50.161Z,3.10
2023-03-05T11:42:50.180Z,3.60
2023-03-05T11:43:50.140Z,2.60
2023-03-05T11:44:50.147Z,4.70
2023-03-05T11:45:50.135Z,3.90
2023-03-05T11:46:50.131Z,4.60
2023-03-05T11:47:50.106Z,3.40
2023-03-05T11:48:50.117Z,4.60
2023-03-05T11:49:50.092Z,3.90
2023-03-05T11:50:50.089Z,3.90
2023-03-05T11:51:50.064Z,2.40
2023-03-05T11:52:50.072Z,3.70
2023-03-05T11:53:50.035Z,3.20
2023-03-05T11:54:50.050Z,3.50
2023-03-05T11:55:50.029Z,4.00
2023-03-05T11:56:50.018Z,3.30
2023-03-05T11:57:50.001Z,3.20
2023-03-05T11:58:50.028Z,2.90
2023-03-05T11:59:49.975Z,4.40
2023-03-05T12:00:49.998Z,1.90
2023-03-05T12:01:50.007Z,4.20
2023-03-05T12:02:50.095Z,5.90
2023-03-05T12:03:49.964Z,5.10
2023-03-05T12:04:49.959Z,6.80
2023-03-05T12:05:49.934Z,4.10
2023-03-05T12:06:49.935Z,3.90
2023-03-05T12:07:49.920Z,5.10
2023-03-05T12:08:49.933Z,2.10
2023-03-05T12:09:49.942Z,2.10
2023-03-05T12:10:49.917Z,3.20
2023-03-05T12:11:49.853Z,2.70
2023-03-05T12:12:49.854Z,1.90
2023-03-05T12:13:49.848Z,3.00
2023-03-05T12:14:49.852Z,2.70
2023-03-05T12:15:49.914Z,3.30
2023-03-05T12:16:49.826Z,2.10
2023-03-05T12:17:49.800Z,2.50
2023-03-05T12:18:49.831Z,5.30
2023-03-05T12:19:49.793Z,4.00
2023-03-05T12:20:49.933Z,2.30
2023-03-05T12:21:49.821Z,2.30
2023-03-05T12:22:49.822Z,3.10
2023-03-05T12:23:49.742Z,2.30
2023-03-05T12:24:49.758Z,2.60
2023-03-05T12:25:49.723Z,4.40
2023-03-05T12:26:49.719Z,3.50
2023-03-05T12:27:49.691Z,2.80
2023-03-05T12:28:49.702Z,1.90
2023-03-05T12:29:49.691Z,5.60
2023-03-05T12:30:49.678Z,5.10
2023-03-05T12:31:49.718Z,3.30
2023-03-05T12:32:49.663Z,6.00
2023-03-05T12:33:49.643Z,4.70
2023-03-05T12:34:49.644Z,3.10
2023-03-05T12:35:49.686Z,6.60
2023-03-05T12:36:49.631Z,6.00
2023-03-05T12:37:49.583Z,7.80
2023-03-05T12:38:49.598Z,10.90
2023-03-05T12:39:49.628Z,4.70
2023-03-05T12:40:49.568Z,4.40
2023-03-05T12:41:49.544Z,4.10
2023-03-05T12:42:49.556Z,12.70
2023-03-05T12:43:49.551Z,12.80
2023-03-05T12:44:49.544Z,5.60
2023-03-05T12:45:49.510Z,6.00
2023-03-05T12:46:49.624Z,5.60
2023-03-05T12:47:49.485Z,5.30
2023-03-05T12:48:49.497Z,6.70
2023-03-05T12:49:49.455Z,6.80
2023-03-05T12:50:49.487Z,6.30
2023-03-05T12:51:49.448Z,3.70
2023-03-05T12:52:49.447Z,4.60
2023-03-05T12:53:49.450Z,5.00
2023-03-05T12:54:49.422Z,5.20
2023-03-05T12:55:49.434Z,4.70
2023-03-05T12:56:49.379Z,2.70
2023-03-05T12:57:49.405Z,5.60
2023-03-05T12:58:49.364Z,5.80
2023-03-05T12:59:49.377Z,4.40
2023-03-05T13:00:49.455Z,4.70